Terminal Aerodrome Forecast
Issued by NWS Pocatello, ID

Home | Current Version | Previous Version | Text Only | Print | Product List | Glossary On
Versions: 1 2 3 4 5 6 7 8 9 10 11 12
000
FTUS45 KPIH 291722
TAFBYI
TAF
KBYI 291722Z 2918/3018 23011KT P6SM SCT120 BKN200
     FM292100 28011KT P6SM VCTS BKN080CB
     FM300400 23010G15KT P6SM SCT090=

USA.gov is the U.S. government's official web portal to all federal, state and local government web resources and services.